createdAt,value
2019-03-06T00:00:42.106Z,86.20
2019-03-06T00:03:10.999Z,53.30
2019-03-06T00:05:40.214Z,53.58
2019-03-06T00:08:09.019Z,21.23
2019-03-06T00:10:37.750Z,20.85
2019-03-06T00:13:06.485Z,19.77
2019-03-06T00:15:35.310Z,21.62
2019-03-06T00:18:05.118Z,22.90
2019-03-06T00:20:33.903Z,20.17
2019-03-06T00:23:02.639Z,21.40
2019-03-06T00:25:31.622Z,23.50
2019-03-06T00:28:00.625Z,26.73
2019-03-06T00:30:29.826Z,26.90
2019-03-06T00:32:59.213Z,25.62
2019-03-06T00:35:36.989Z,28.25
2019-03-06T00:38:06.105Z,27.02
2019-03-06T00:40:36.793Z,29.60
2019-03-06T00:43:05.940Z,30.70
2019-03-06T00:45:35.141Z,27.75
2019-03-06T00:48:03.879Z,29.00
2019-03-06T00:50:32.619Z,29.25
2019-03-06T00:53:01.585Z,27.45
2019-03-06T00:55:30.324Z,29.75
2019-03-06T00:57:59.098Z,25.77
2019-03-06T01:00:27.858Z,30.48
2019-03-06T01:02:56.640Z,29.30
2019-03-06T01:05:25.868Z,24.00
2019-03-06T01:07:54.747Z,25.35
2019-03-06T01:10:23.517Z,23.98
2019-03-06T01:12:52.356Z,22.85
2019-03-06T01:15:21.395Z,24.55
2019-03-06T01:17:50.488Z,26.42
2019-03-06T01:20:19.246Z,26.15
2019-03-06T01:22:48.047Z,22.10
2019-03-06T01:25:22.009Z,23.62
2019-03-06T01:27:50.767Z,23.12
2019-03-06T01:30:20.975Z,23.95
2019-03-06T01:32:51.349Z,29.32
2019-03-06T01:35:27.447Z,28.92
2019-03-06T01:37:57.768Z,29.67
2019-03-06T01:40:28.088Z,31.12
2019-03-06T01:43:07.408Z,32.83
2019-03-06T01:45:36.168Z,31.48
2019-03-06T01:48:05.027Z,35.10
2019-03-06T01:50:33.807Z,32.25
2019-03-06T01:53:02.567Z,32.80
2019-03-06T01:55:31.390Z,35.38
2019-03-06T01:58:00.188Z,33.98
2019-03-06T02:00:28.968Z,36.48
2019-03-06T02:02:57.806Z,35.80
2019-03-06T02:05:27.208Z,36.15
2019-03-06T02:07:55.968Z,34.05
2019-03-06T02:10:24.769Z,32.60
2019-03-06T02:12:53.577Z,34.30
2019-03-06T02:15:22.508Z,38.23
2019-03-06T02:17:51.268Z,35.98
2019-03-06T02:20:20.262Z,35.52
2019-03-06T02:22:49.030Z,34.27
2019-03-06T02:25:17.817Z,33.92
2019-03-06T02:27:46.648Z,35.88
2019-03-06T02:30:26.101Z,34.88
2019-03-06T02:32:54.829Z,34.95
2019-03-06T02:35:23.631Z,35.05
2019-03-06T02:37:52.469Z,33.48
2019-03-06T02:40:21.248Z,35.52
2019-03-06T02:42:50.054Z,33.28
2019-03-06T02:45:20.172Z,35.88
2019-03-06T02:47:49.190Z,34.18
2019-03-06T02:50:18.747Z,33.08
2019-03-06T02:52:47.518Z,34.70
2019-03-06T02:55:17.513Z,35.78
2019-03-06T02:57:47.939Z,35.40
2019-03-06T03:00:37.012Z,35.28
2019-03-06T03:03:16.570Z,35.00
2019-03-06T03:05:49.729Z,34.25
2019-03-06T03:08:18.589Z,40.35
2019-03-06T03:10:47.633Z,36.08
2019-03-06T03:13:16.508Z,39.90
2019-03-06T03:15:45.271Z,38.67
2019-03-06T03:18:14.031Z,38.38
2019-03-06T03:20:42.808Z,39.70
2019-03-06T03:23:11.850Z,32.78
2019-03-06T03:25:40.678Z,36.00
2019-03-06T03:28:09.425Z,36.48
2019-03-06T03:30:38.287Z,36.68
2019-03-06T03:33:07.149Z,35.52
2019-03-06T03:35:35.911Z,35.52
2019-03-06T03:38:04.712Z,34.78
2019-03-06T03:40:33.467Z,35.30
2019-03-06T03:43:02.231Z,34.55
2019-03-06T03:45:31.010Z,37.48
2019-03-06T03:47:59.776Z,34.10
2019-03-06T03:50:28.575Z,35.75
2019-03-06T03:52:57.307Z,34.08
2019-03-06T03:55:26.137Z,35.20
2019-03-06T03:57:54.846Z,36.48
2019-03-06T04:00:24.227Z,37.80
2019-03-06T04:02:53.268Z,36.35
2019-03-06T04:05:22.032Z,36.08
2019-03-06T04:07:50.830Z,38.28
2019-03-06T04:10:19.691Z,39.40
2019-03-06T04:12:48.469Z,39.65
2019-03-06T04:15:20.330Z,37.70
2019-03-06T04:17:49.089Z,38.95
2019-03-06T04:20:18.488Z,41.50
2019-03-06T04:22:47.247Z,35.17
2019-03-06T04:25:16.074Z,38.80
2019-03-06T04:27:44.890Z,37.50
2019-03-06T04:30:18.749Z,32.85
2019-03-06T04:32:47.569Z,39.15
2019-03-06T04:35:16.514Z,39.73
2019-03-06T04:37:45.269Z,37.88
2019-03-06T04:40:14.951Z,43.60
2019-03-06T04:42:43.815Z,42.08
2019-03-06T04:45:15.069Z,43.73
2019-03-06T04:47:43.829Z,43.48
2019-03-06T04:50:16.068Z,43.78
2019-03-06T04:52:45.028Z,42.88
2019-03-06T04:55:15.568Z,43.25
2019-03-06T04:57:44.488Z,43.15
2019-03-06T05:00:18.688Z,44.38
2019-03-06T05:02:47.429Z,43.30
2019-03-06T05:05:16.257Z,39.25
2019-03-06T05:07:45.019Z,43.10
2019-03-06T05:10:14.889Z,43.02
2019-03-06T05:12:43.651Z,36.30
2019-03-06T05:15:16.353Z,39.05
2019-03-06T05:17:46.670Z,40.63
2019-03-06T05:20:15.448Z,43.02
2019-03-06T05:22:44.228Z,43.45
2019-03-06T05:25:12.994Z,41.02
2019-03-06T05:27:41.777Z,41.30
2019-03-06T05:30:16.067Z,40.95
2019-03-06T05:32:47.350Z,40.95
2019-03-06T05:35:25.186Z,40.05
2019-03-06T05:38:02.908Z,39.83
2019-03-06T05:40:31.687Z,41.08
2019-03-06T05:43:00.448Z,40.30
2019-03-06T05:45:29.208Z,42.75
2019-03-06T05:47:57.972Z,41.08
2019-03-06T05:50:26.719Z,43.98
2019-03-06T05:52:55.533Z,42.50
2019-03-06T05:55:24.289Z,44.03
2019-03-06T05:57:53.069Z,42.83
2019-03-06T06:00:23.428Z,40.92
2019-03-06T06:02:52.167Z,41.63
2019-03-06T06:05:20.988Z,42.78
2019-03-06T06:07:50.648Z,43.15
2019-03-06T06:10:19.423Z,43.15
2019-03-06T06:12:48.508Z,39.78
2019-03-06T06:15:17.488Z,41.58
2019-03-06T06:17:46.308Z,39.55
2019-03-06T06:20:15.878Z,36.70
2019-03-06T06:22:54.749Z,39.92
2019-03-06T06:25:24.994Z,37.20
2019-03-06T06:27:53.751Z,35.28
2019-03-06T06:30:22.512Z,37.35
2019-03-06T06:32:51.283Z,37.73
2019-03-06T06:35:20.049Z,37.05
2019-03-06T06:37:50.529Z,35.95
2019-03-06T06:40:19.288Z,36.93
2019-03-06T06:42:48.208Z,34.27
2019-03-06T06:45:18.796Z,33.63
2019-03-06T06:48:09.870Z,34.25
2019-03-06T06:51:10.551Z,34.23
2019-03-06T06:53:53.133Z,32.15
2019-03-06T06:56:30.330Z,30.75
2019-03-06T06:59:02.052Z,34.03
2019-03-06T07:02:23.628Z,35.78
2019-03-06T07:05:26.569Z,32.17
2019-03-06T07:07:56.908Z,32.15
2019-03-06T07:10:45.768Z,31.35
2019-03-06T07:13:16.148Z,29.15
2019-03-06T07:15:46.489Z,32.33
2019-03-06T07:18:19.708Z,28.98
2019-03-06T07:21:08.648Z,29.25
2019-03-06T07:23:51.397Z,28.98
2019-03-06T07:26:27.488Z,25.60
2019-03-06T07:29:03.726Z,26.95
2019-03-06T07:31:37.147Z,26.48
2019-03-06T07:34:07.628Z,25.25
2019-03-06T07:36:47.256Z,26.27
2019-03-06T07:39:20.108Z,27.20
2019-03-06T07:41:53.209Z,24.20
2019-03-06T07:44:30.246Z,26.62
2019-03-06T07:47:15.950Z,25.95
2019-03-06T07:49:47.368Z,27.75
2019-03-06T07:52:34.227Z,24.87
2019-03-06T07:55:22.909Z,25.70
2019-03-06T07:58:27.568Z,22.00
2019-03-06T08:00:56.328Z,23.55
2019-03-06T08:03:25.090Z,23.40
2019-03-06T08:05:53.895Z,23.90
2019-03-06T08:08:22.689Z,24.02
2019-03-06T08:10:52.508Z,23.60
2019-03-06T08:13:25.768Z,21.35
2019-03-06T08:15:56.128Z,21.33
2019-03-06T08:18:29.368Z,19.77
2019-03-06T08:21:02.748Z,21.62
2019-03-06T08:23:45.308Z,23.62
2019-03-06T08:26:14.090Z,23.32
2019-03-06T08:28:44.402Z,20.02
2019-03-06T08:31:14.895Z,22.05
2019-03-06T08:33:43.656Z,20.55
2019-03-06T08:36:12.448Z,22.02
2019-03-06T08:38:42.368Z,21.70
2019-03-06T08:41:11.165Z,17.77
2019-03-06T08:43:39.967Z,18.05
2019-03-06T08:46:19.650Z,19.45
2019-03-06T08:48:56.368Z,17.87
2019-03-06T08:51:29.568Z,16.35
2019-03-06T08:54:15.089Z,19.70
2019-03-06T08:56:47.988Z,15.10
2019-03-06T08:59:18.793Z,18.50
2019-03-06T09:02:00.027Z,17.25
2019-03-06T09:04:26.949Z,16.02
2019-03-06T09:07:13.211Z,17.42
2019-03-06T09:09:52.532Z,15.88
2019-03-06T09:12:40.788Z,16.45
2019-03-06T09:15:30.168Z,16.45
2019-03-06T09:18:09.397Z,16.10
2019-03-06T09:20:50.488Z,16.48
2019-03-06T09:23:23.381Z,15.48
2019-03-06T09:25:59.568Z,16.45
2019-03-06T09:28:29.888Z,16.17
2019-03-06T09:31:01.489Z,13.72
2019-03-06T09:33:32.688Z,15.83
2019-03-06T09:36:06.008Z,11.43
2019-03-06T09:41:21.607Z,13.03
2019-03-06T09:43:54.968Z,11.15
2019-03-06T09:46:28.408Z,10.65
2019-03-06T09:49:11.295Z,10.82
2019-03-06T09:51:55.347Z,13.50
2019-03-06T09:54:25.768Z,12.75
2019-03-06T09:57:02.116Z,9.83
2019-03-06T09:59:48.968Z,11.22
2019-03-06T10:02:19.287Z,13.98
2019-03-06T10:04:52.709Z,12.13
2019-03-06T10:07:23.050Z,13.70
2019-03-06T10:09:59.084Z,9.15
2019-03-06T10:12:28.408Z,9.33
2019-03-06T10:15:07.888Z,10.63
2019-03-06T10:17:44.516Z,11.70
2019-03-06T10:20:24.874Z,10.35
2019-03-06T10:25:15.348Z,11.30
2019-03-06T10:27:44.172Z,12.50
2019-03-06T10:30:18.723Z,11.80
2019-03-06T10:32:47.730Z,11.70
2019-03-06T10:35:18.297Z,11.12
2019-03-06T10:37:47.330Z,8.93
2019-03-06T10:40:18.467Z,8.83
2019-03-06T10:42:47.350Z,10.13
2019-03-06T10:45:17.809Z,11.35
2019-03-06T10:47:47.248Z,11.10
2019-03-06T10:50:26.370Z,11.43
2019-03-06T10:52:49.612Z,10.25
2019-03-06T10:55:19.928Z,11.70
2019-03-06T10:57:48.968Z,9.75
2019-03-06T11:00:27.548Z,11.78
2019-03-06T11:02:57.034Z,14.75
2019-03-06T11:05:27.751Z,13.13
2019-03-06T11:07:56.908Z,12.03
2019-03-06T11:12:57.169Z,10.70
2019-03-06T11:15:26.228Z,9.83
2019-03-06T11:17:55.113Z,10.48
2019-03-06T11:18:55.889Z,12.63
2019-03-06T11:20:30.108Z,8.75
2019-03-06T11:23:01.568Z,6.92
2019-03-06T11:25:33.767Z,12.43
2019-03-06T11:28:03.048Z,10.35
2019-03-06T11:30:49.408Z,21.02
2019-03-06T11:33:19.477Z,14.05
2019-03-06T11:35:48.830Z,11.38
2019-03-06T11:38:18.141Z,10.38
2019-03-06T11:40:47.068Z,13.45
2019-03-06T11:43:17.528Z,11.95
2019-03-06T11:45:47.088Z,13.53
2019-03-06T11:48:15.969Z,11.88
2019-03-06T11:50:44.988Z,12.75
2019-03-06T11:53:13.909Z,12.40
2019-03-06T11:55:42.772Z,14.28
2019-03-06T11:58:15.488Z,12.15
2019-03-06T12:00:46.088Z,13.15
2019-03-06T12:03:16.852Z,10.90
2019-03-06T12:05:46.068Z,14.85
2019-03-06T12:08:17.128Z,15.43
2019-03-06T12:10:46.011Z,16.87
2019-03-06T12:13:17.988Z,16.67
2019-03-06T12:15:48.685Z,17.17
2019-03-06T12:18:18.709Z,14.45
2019-03-06T12:20:47.649Z,12.50
2019-03-06T12:23:16.430Z,14.60
2019-03-06T12:25:45.348Z,13.15
2019-03-06T12:28:15.428Z,16.05
2019-03-06T12:30:44.256Z,13.90
2019-03-06T12:33:16.008Z,13.98
2019-03-06T12:35:44.793Z,13.08
2019-03-06T12:38:13.668Z,12.75
2019-03-06T12:40:44.068Z,13.35
2019-03-06T12:43:12.888Z,11.73
2019-03-06T12:45:44.209Z,12.35
2019-03-06T12:48:17.988Z,13.45
2019-03-06T12:50:54.066Z,13.85
2019-03-06T12:53:17.268Z,13.50
2019-03-06T12:55:46.068Z,14.93
2019-03-06T12:58:14.827Z,13.93
2019-03-06T13:00:43.629Z,10.48
2019-03-06T13:03:12.399Z,12.53
2019-03-06T13:05:41.228Z,14.80
2019-03-06T13:08:19.531Z,11.97
2019-03-06T13:10:40.529Z,11.22
2019-03-06T13:13:10.328Z,10.90
2019-03-06T13:15:39.203Z,9.88
2019-03-06T13:18:08.008Z,10.98
2019-03-06T13:20:36.808Z,12.23
2019-03-06T13:23:07.335Z,12.25
2019-03-06T13:25:36.168Z,12.13
2019-03-06T13:28:05.028Z,10.50
2019-03-06T13:30:34.420Z,10.05
2019-03-06T13:33:10.749Z,13.75
2019-03-06T13:35:40.508Z,11.73
2019-03-06T13:38:09.269Z,10.80
2019-03-06T13:40:38.029Z,12.80
2019-03-06T13:43:06.949Z,10.15
2019-03-06T13:45:36.157Z,11.97
2019-03-06T13:48:05.028Z,11.00
2019-03-06T13:50:33.808Z,10.05
2019-03-06T13:53:02.729Z,11.25
2019-03-06T13:55:31.487Z,13.50
2019-03-06T13:58:00.426Z,12.07
2019-03-06T14:00:29.207Z,11.83
2019-03-06T14:02:59.751Z,10.60
2019-03-06T14:05:28.698Z,10.20
2019-03-06T14:07:57.448Z,9.78
2019-03-06T14:10:26.936Z,9.63
2019-03-06T14:12:55.927Z,9.45
2019-03-06T14:15:24.866Z,9.50
2019-03-06T14:17:53.628Z,8.03
2019-03-06T14:20:23.398Z,8.33
2019-03-06T14:22:52.369Z,9.40
2019-03-06T14:25:22.029Z,8.85
2019-03-06T14:27:51.028Z,8.88
2019-03-06T14:30:25.388Z,8.50
2019-03-06T14:32:54.171Z,9.53
2019-03-06T14:35:23.469Z,9.40
2019-03-06T14:37:52.289Z,10.25
2019-03-06T14:40:32.408Z,11.45
2019-03-06T14:43:02.988Z,12.93
2019-03-06T14:45:31.967Z,10.43
2019-03-06T14:48:05.949Z,10.98
2019-03-06T14:53:04.609Z,8.55
2019-03-06T14:55:34.087Z,8.95
2019-03-06T14:58:02.868Z,8.98
2019-03-06T15:00:31.646Z,8.20
2019-03-06T15:03:00.409Z,10.85
2019-03-06T15:05:29.147Z,10.00
2019-03-06T15:07:57.926Z,9.55
2019-03-06T15:10:27.110Z,10.45
2019-03-06T15:12:55.887Z,10.28
2019-03-06T15:15:24.691Z,9.68
2019-03-06T15:17:53.507Z,10.05
2019-03-06T15:20:27.150Z,9.95
2019-03-06T15:22:56.530Z,11.08
2019-03-06T15:25:26.807Z,11.03
2019-03-06T15:27:55.571Z,10.32
2019-03-06T15:30:24.427Z,12.50
2019-03-06T15:32:53.207Z,9.25
2019-03-06T15:35:22.608Z,11.30
2019-03-06T15:37:51.528Z,11.22
2019-03-06T15:40:32.228Z,9.78
2019-03-06T15:43:01.014Z,12.53
2019-03-06T15:45:33.737Z,12.30
2019-03-06T15:48:02.677Z,18.23
2019-03-06T15:50:31.527Z,17.17
2019-03-06T15:53:00.367Z,16.40
2019-03-06T15:55:30.050Z,16.07
2019-03-06T15:58:00.348Z,13.40
2019-03-06T16:00:35.130Z,15.80
2019-03-06T16:03:06.169Z,15.15
2019-03-06T16:05:35.888Z,18.55
2019-03-06T16:08:05.751Z,17.12
2019-03-06T16:10:34.667Z,16.75
2019-03-06T16:13:04.287Z,21.93
2019-03-06T16:15:33.248Z,15.63
2019-03-06T16:18:05.167Z,18.05
2019-03-06T16:20:34.287Z,15.15
2019-03-06T16:23:03.148Z,17.07
2019-03-06T16:25:36.867Z,17.23
2019-03-06T16:28:02.708Z,21.35
2019-03-06T16:30:31.748Z,17.77
2019-03-06T16:33:00.727Z,19.45
2019-03-06T16:35:29.691Z,20.02
2019-03-06T16:37:58.792Z,20.23
2019-03-06T16:40:28.128Z,21.90
2019-03-06T16:42:57.031Z,23.45
2019-03-06T16:45:29.393Z,18.27
2019-03-06T16:47:58.473Z,17.10
2019-03-06T16:50:27.735Z,17.55
2019-03-06T16:52:56.768Z,18.02
2019-03-06T16:55:26.687Z,21.55
2019-03-06T16:57:55.855Z,17.87
2019-03-06T17:00:29.607Z,24.12
2019-03-06T17:03:00.029Z,23.27
2019-03-06T17:05:29.107Z,20.45
2019-03-06T17:07:59.247Z,23.15
2019-03-06T17:10:29.721Z,25.27
2019-03-06T17:12:59.147Z,26.62
2019-03-06T17:15:29.167Z,27.80
2019-03-06T17:17:58.167Z,31.33
2019-03-06T17:20:31.908Z,27.05
2019-03-06T17:23:01.107Z,25.70
2019-03-06T17:25:31.428Z,28.25
2019-03-06T17:28:00.367Z,26.90
2019-03-06T17:30:34.308Z,26.95
2019-03-06T17:33:16.888Z,26.27
2019-03-06T17:35:45.928Z,22.77
2019-03-06T17:38:15.927Z,26.25
2019-03-06T17:40:45.424Z,25.55
2019-03-06T17:43:14.964Z,26.50
2019-03-06T17:45:44.669Z,26.82
2019-03-06T17:48:13.848Z,23.85
2019-03-06T17:50:43.158Z,23.70
2019-03-06T17:53:12.028Z,25.20
2019-03-06T17:55:41.035Z,23.50
2019-03-06T17:58:10.051Z,32.13
2019-03-06T18:00:43.787Z,24.27
2019-03-06T18:03:14.488Z,24.32
2019-03-06T18:05:43.301Z,26.23
2019-03-06T18:08:12.342Z,24.32
2019-03-06T18:10:41.390Z,22.82
2019-03-06T18:13:10.751Z,22.98
2019-03-06T18:15:39.707Z,21.30
2019-03-06T18:18:08.713Z,24.12
2019-03-06T18:20:37.825Z,26.33
2019-03-06T18:23:06.667Z,22.60
2019-03-06T18:25:35.750Z,22.13
2019-03-06T18:28:05.186Z,28.05
2019-03-06T18:30:34.105Z,29.55
2019-03-06T18:33:03.076Z,28.47
2019-03-06T18:35:31.945Z,25.77
2019-03-06T18:38:00.985Z,22.67
2019-03-06T18:40:31.785Z,24.30
2019-03-06T18:43:01.345Z,25.45
2019-03-06T18:45:31.106Z,26.37
2019-03-06T18:48:00.026Z,22.30
2019-03-06T18:50:28.899Z,23.57
2019-03-06T18:52:59.188Z,23.87
2019-03-06T18:55:28.338Z,24.25
2019-03-06T18:57:57.661Z,19.37
2019-03-06T19:00:30.876Z,18.60
2019-03-06T19:03:01.507Z,19.30
2019-03-06T19:05:30.513Z,19.35
2019-03-06T19:07:59.586Z,18.52
2019-03-06T19:10:29.691Z,18.55
2019-03-06T19:12:58.505Z,17.98
2019-03-06T19:15:29.065Z,18.32
2019-03-06T19:17:58.114Z,18.60
2019-03-06T19:20:27.078Z,21.17
2019-03-06T19:22:56.177Z,17.52
2019-03-06T19:25:25.305Z,19.15
2019-03-06T19:27:54.346Z,18.32
2019-03-06T19:30:24.547Z,21.55
2019-03-06T19:32:55.265Z,20.43
2019-03-06T19:35:27.026Z,21.27
2019-03-06T19:37:56.104Z,19.37
2019-03-06T19:40:25.585Z,21.33
2019-03-06T19:42:54.585Z,19.77
2019-03-06T19:45:25.504Z,19.17
2019-03-06T19:47:54.987Z,20.23
2019-03-06T19:50:28.346Z,21.30
2019-03-06T19:52:57.545Z,20.10
2019-03-06T19:55:26.585Z,23.50
2019-03-06T19:58:03.865Z,20.37
2019-03-06T20:00:33.656Z,19.75
2019-03-06T20:03:05.932Z,19.95
2019-03-06T20:05:39.573Z,20.88
2019-03-06T20:08:12.615Z,21.62
2019-03-06T20:10:41.933Z,22.30
2019-03-06T20:13:11.624Z,22.25
2019-03-06T20:15:41.567Z,23.77
2019-03-06T20:18:10.893Z,24.75
2019-03-06T20:20:40.324Z,23.55
2019-03-06T20:23:09.244Z,25.55
2019-03-06T20:25:38.124Z,27.52
2019-03-06T20:28:07.638Z,22.70
2019-03-06T20:30:36.673Z,24.18
2019-03-06T20:33:06.203Z,20.82
2019-03-06T20:35:35.283Z,24.47
2019-03-06T20:38:04.363Z,22.07
2019-03-06T20:40:34.932Z,21.30
2019-03-06T20:43:04.124Z,24.67
2019-03-06T20:45:34.404Z,21.00
2019-03-06T20:48:03.563Z,20.15
2019-03-06T20:50:34.509Z,19.35
2019-03-06T20:53:03.124Z,21.25
2019-03-06T20:55:32.044Z,19.12
2019-03-06T20:58:01.444Z,20.12
2019-03-06T21:00:32.164Z,17.60
2019-03-06T21:03:01.294Z,16.48
2019-03-06T21:05:30.203Z,15.03
2019-03-06T21:07:59.164Z,19.40
2019-03-06T21:10:28.173Z,22.60
2019-03-06T21:12:57.252Z,17.45
2019-03-06T21:15:26.207Z,20.97
2019-03-06T21:17:55.247Z,16.20
2019-03-06T21:20:24.965Z,18.25
2019-03-06T21:22:53.810Z,21.52
2019-03-06T21:25:23.122Z,16.10
2019-03-06T21:27:52.886Z,14.65
2019-03-06T21:30:29.653Z,15.80
2019-03-06T21:32:58.771Z,21.10
2019-03-06T21:35:27.695Z,20.82
2019-03-06T21:37:56.651Z,20.12
2019-03-06T21:40:25.581Z,18.73
2019-03-06T21:42:54.442Z,22.52
2019-03-06T21:45:23.643Z,19.15
2019-03-06T21:47:52.535Z,22.13
2019-03-06T21:50:21.452Z,20.80
2019-03-06T21:52:50.416Z,19.25
2019-03-06T21:55:19.243Z,19.45
2019-03-06T21:57:48.524Z,19.95
2019-03-06T22:00:25.048Z,17.27
2019-03-06T22:02:53.992Z,19.17
2019-03-06T22:05:22.946Z,25.02
2019-03-06T22:07:51.763Z,17.90
2019-03-06T22:10:20.657Z,26.65
2019-03-06T22:12:49.523Z,21.25
2019-03-06T22:15:22.369Z,30.55
2019-03-06T22:17:51.252Z,27.50
2019-03-06T22:20:20.094Z,35.17
2019-03-06T22:22:48.971Z,30.20
2019-03-06T22:25:18.684Z,33.92
2019-03-06T22:27:47.568Z,32.98
2019-03-06T22:30:18.805Z,33.63
2019-03-06T22:32:47.763Z,35.05
2019-03-06T22:35:16.536Z,36.60
2019-03-06T22:37:45.488Z,36.03
2019-03-06T22:40:17.566Z,44.67
2019-03-06T22:42:46.364Z,44.20
2019-03-06T22:45:17.164Z,51.35
2019-03-06T22:47:46.051Z,45.67
2019-03-06T22:50:17.004Z,40.75
2019-03-06T22:52:45.847Z,49.27
2019-03-06T22:55:16.524Z,42.78
2019-03-06T22:57:45.377Z,47.17
2019-03-06T23:00:32.698Z,47.88
2019-03-06T23:03:01.803Z,49.05
2019-03-06T23:05:33.163Z,39.40
2019-03-06T23:08:02.054Z,39.23
2019-03-06T23:10:32.525Z,43.58
2019-03-06T23:13:01.411Z,37.95
2019-03-06T23:15:30.412Z,41.58
2019-03-06T23:17:59.604Z,40.12
2019-03-06T23:20:28.500Z,39.65
2019-03-06T23:22:57.364Z,40.05
2019-03-06T23:25:26.205Z,38.05
2019-03-06T23:27:55.123Z,29.70
2019-03-06T23:30:24.051Z,35.90
2019-03-06T23:32:53.323Z,33.28
2019-03-06T23:35:22.084Z,39.08
2019-03-06T23:37:51.059Z,38.55
2019-03-06T23:40:19.851Z,38.78
2019-03-06T23:42:48.724Z,38.30
2019-03-06T23:45:17.604Z,34.98
2019-03-06T23:47:46.604Z,38.45
2019-03-06T23:50:15.563Z,34.10
2019-03-06T23:53:02.374Z,36.15
2019-03-06T23:55:32.575Z,35.58
2019-03-06T23:58:01.444Z,32.83
